sensor_id;sensor_type;location;lat;lon;timestamp;pressure;altitude;pressure_sealevel;temperature;humidity
6028;BME280;3042;43.194;27.646;2023-09-12T00:00:47;101804.72;;;21.71;100.00
6028;BME280;3042;43.194;27.646;2023-09-12T00:03:14;101810.59;;;21.55;100.00
6028;BME280;3042;43.194;27.646;2023-09-12T00:05:41;101819.78;;;21.28;100.00
6028;BME280;3042;43.194;27.646;2023-09-12T00:08:08;101821.97;;;21.05;100.00
6028;BME280;3042;43.194;27.646;2023-09-12T00:10:35;101821.31;;;20.70;100.00
6028;BME280;3042;43.194;27.646;2023-09-12T00:13:03;101809.09;;;20.72;100.00
6028;BME280;3042;43.194;27.646;2023-09-12T00:15:29;101807.53;;;20.83;100.00
6028;BME280;3042;43.194;27.646;2023-09-12T00:17:59;101799.91;;;20.96;100.00
6028;BME280;3042;43.194;27.646;2023-09-12T00:20:26;101802.41;;;20.90;100.00
6028;BME280;3042;43.194;27.646;2023-09-12T00:22:54;101807.72;;;20.93;100.00
6028;BME280;3042;43.194;27.646;2023-09-12T00:25:21;101798.03;;;20.89;100.00
6028;BME280;3042;43.194;27.646;2023-09-12T00:27:48;101793.94;;;21.06;100.00
6028;BME280;3042;43.194;27.646;2023-09-12T00:30:15;101802.03;;;21.18;100.00
6028;BME280;3042;43.194;27.646;2023-09-12T00:32:42;101755.22;;;20.96;100.00
6028;BME280;3042;43.194;27.646;2023-09-12T00:35:11;101780.97;;;21.15;100.00
6028;BME280;3042;43.194;27.646;2023-09-12T00:37:37;101796.06;;;21.27;100.00
6028;BME280;3042;43.194;27.646;2023-09-12T00:40:05;101805.25;;;21.02;100.00
6028;BME280;3042;43.194;27.646;2023-09-12T00:42:33;101802.66;;;21.03;100.00
6028;BME280;3042;43.194;27.646;2023-09-12T00:45:00;101796.56;;;21.06;100.00
6028;BME280;3042;43.194;27.646;2023-09-12T00:47:27;101780.94;;;20.65;100.00
6028;BME280;3042;43.194;27.646;2023-09-12T00:49:55;101816.38;;;20.44;100.00
6028;BME280;3042;43.194;27.646;2023-09-12T00:52:25;101817.44;;;20.54;100.00
6028;BME280;3042;43.194;27.646;2023-09-12T00:54:53;101806.38;;;20.69;100.00
6028;BME280;3042;43.194;27.646;2023-09-12T00:57:21;101807.44;;;20.79;100.00
6028;BME280;3042;43.194;27.646;2023-09-12T00:59:49;101805.56;;;20.72;100.00
6028;BME280;3042;43.194;27.646;2023-09-12T01:02:16;101797.75;;;20.76;100.00
6028;BME280;3042;43.194;27.646;2023-09-12T01:04:43;101711.16;;;20.35;100.00
6028;BME280;3042;43.194;27.646;2023-09-12T01:07:10;101806.09;;;20.98;100.00
6028;BME280;3042;43.194;27.646;2023-09-12T01:09:39;101768.19;;;20.86;100.00
6028;BME280;3042;43.194;27.646;2023-09-12T01:12:07;101801.03;;;21.12;100.00
6028;BME280;3042;43.194;27.646;2023-09-12T01:14:34;101793.19;;;21.13;100.00
6028;BME280;3042;43.194;27.646;2023-09-12T01:17:01;101802.03;;;21.18;100.00
6028;BME280;3042;43.194;27.646;2023-09-12T01:19:28;101776.88;;;20.82;100.00
6028;BME280;3042;43.194;27.646;2023-09-12T01:22:27;101798.78;;;20.83;100.00
6028;BME280;3042;43.194;27.646;2023-09-12T01:25:19;101683.16;;;20.36;100.00
6028;BME280;3042;43.194;27.646;2023-09-12T01:27:55;101716.03;;;20.59;100.00
6028;BME280;3042;43.194;27.646;2023-09-12T01:30:25;101791.44;;;21.12;100.00
6028;BME280;3042;43.194;27.646;2023-09-12T01:32:54;101764.91;;;21.00;100.00
6028;BME280;3042;43.194;27.646;2023-09-12T01:35:21;101784.50;;;21.17;100.00
6028;BME280;3042;43.194;27.646;2023-09-12T01:37:48;101787.19;;;21.20;100.00
6028;BME280;3042;43.194;27.646;2023-09-12T01:40:15;101789.88;;;21.23;100.00
6028;BME280;3042;43.194;27.646;2023-09-12T01:42:45;101802.13;;;21.21;100.00
6028;BME280;3042;43.194;27.646;2023-09-12T01:45:17;101814.53;;;20.81;100.00
6028;BME280;3042;43.194;27.646;2023-09-12T01:47:45;101811.75;;;20.75;100.00
6028;BME280;3042;43.194;27.646;2023-09-12T01:50:13;101813.78;;;20.89;100.00
6028;BME280;3042;43.194;27.646;2023-09-12T01:52:40;101807.31;;;20.71;100.00
6028;BME280;3042;43.194;27.646;2023-09-12T01:55:08;101811.53;;;20.63;100.00
6028;BME280;3042;43.194;27.646;2023-09-12T01:57:36;101814.22;;;20.66;100.00
6028;BME280;3042;43.194;27.646;2023-09-12T02:00:04;101811.44;;;20.60;100.00
6028;BME280;3042;43.194;27.646;2023-09-12T02:02:34;101816.38;;;20.46;100.00
6028;BME280;3042;43.194;27.646;2023-09-12T02:05:07;101812.13;;;20.53;100.00
6028;BME280;3042;43.194;27.646;2023-09-12T02:07:38;101802.72;;;20.61;100.00
6028;BME280;3042;43.194;27.646;2023-09-12T02:10:06;101801.22;;;20.72;100.00
6028;BME280;3042;43.194;27.646;2023-09-12T02:12:33;101774.81;;;20.66;100.00
6028;BME280;3042;43.194;27.646;2023-09-12T02:15:00;101764.16;;;20.60;100.00
6028;BME280;3042;43.194;27.646;2023-09-12T02:17:27;101780.81;;;20.59;100.00
6028;BME280;3042;43.194;27.646;2023-09-12T02:19:56;101796.06;;;20.78;100.00
6028;BME280;3042;43.194;27.646;2023-09-12T02:22:23;101792.69;;;20.84;100.00
6028;BME280;3042;43.194;27.646;2023-09-12T02:24:50;101798.78;;;20.83;100.00
6028;BME280;3042;43.194;27.646;2023-09-12T02:27:17;101791.84;;;20.88;100.00
6028;BME280;3042;43.194;27.646;2023-09-12T02:29:44;101791.94;;;20.91;100.00
6028;BME280;3042;43.194;27.646;2023-09-12T02:32:11;101798.03;;;20.89;100.00
6028;BME280;3042;43.194;27.646;2023-09-12T02:34:38;101796.06;;;20.78;100.00
6028;BME280;3042;43.194;27.646;2023-09-12T02:37:06;101805.59;;;20.73;100.00
6028;BME280;3042;43.194;27.646;2023-09-12T02:39:33;101809.19;;;20.77;100.00
6028;BME280;3042;43.194;27.646;2023-09-12T02:42:00;101804.63;;;20.68;100.00
6028;BME280;3042;43.194;27.646;2023-09-12T02:44:28;101782.34;;;20.51;100.00
6028;BME280;3042;43.194;27.646;2023-09-12T02:46:55;101815.63;;;20.52;100.00
6028;BME280;3042;43.194;27.646;2023-09-12T02:49:21;101813.84;;;20.49;100.00
6028;BME280;3042;43.194;27.646;2023-09-12T02:51:48;101807.81;;;20.55;100.00
6028;BME280;3042;43.194;27.646;2023-09-12T02:54:17;101788.25;;;20.40;100.00
6028;BME280;3042;43.194;27.646;2023-09-12T02:56:44;101815.41;;;20.41;100.00
6028;BME280;3042;43.194;27.646;2023-09-12T02:59:11;101816.88;;;20.28;100.00
6028;BME280;3042;43.194;27.646;2023-09-12T03:01:38;101810.88;;;20.34;100.00
6028;BME280;3042;43.194;27.646;2023-09-12T03:04:05;101809.31;;;20.43;100.00
6028;BME280;3042;43.194;27.646;2023-09-12T03:06:32;101812.97;;;20.49;100.00
6028;BME280;3042;43.194;27.646;2023-09-12T03:08:59;101816.38;;;20.44;100.00
6028;BME280;3042;43.194;27.646;2023-09-12T03:11:27;101722.53;;;19.93;100.00
6028;BME280;3042;43.194;27.646;2023-09-12T03:13:55;101806.88;;;20.53;100.00
6028;BME280;3042;43.194;27.646;2023-09-12T03:16:22;101805.28;;;20.58;100.00
6028;BME280;3042;43.194;27.646;2023-09-12T03:18:50;101808.81;;;20.58;100.00
6028;BME280;3042;43.194;27.646;2023-09-12T03:21:17;101811.16;;;20.48;100.00
6028;BME280;3042;43.194;27.646;2023-09-12T03:23:44;101815.97;;;20.26;100.00
6028;BME280;3042;43.194;27.646;2023-09-12T03:26:11;101819.56;;;20.31;100.00
6028;BME280;3042;43.194;27.646;2023-09-12T03:28:39;101821.41;;;20.35;100.00
6028;BME280;3042;43.194;27.646;2023-09-12T03:31:09;101825.47;;;20.21;100.00
6028;BME280;3042;43.194;27.646;2023-09-12T03:33:37;101822.91;;;20.24;100.00
6028;BME280;3042;43.194;27.646;2023-09-12T03:36:04;101819.56;;;20.31;100.00
6028;BME280;3042;43.194;27.646;2023-09-12T03:38:32;101819.63;;;20.34;100.00
6028;BME280;3042;43.194;27.646;2023-09-12T03:40:59;101803.63;;;20.22;100.00
6028;BME280;3042;43.194;27.646;2023-09-12T03:43:26;101711.34;;;19.63;100.00
6028;BME280;3042;43.194;27.646;2023-09-12T03:45:54;101833.63;;;20.33;100.00
6028;BME280;3042;43.194;27.646;2023-09-12T03:48:21;101837.88;;;20.28;100.00
6028;BME280;3042;43.194;27.646;2023-09-12T03:50:48;101785.72;;;20.02;100.00
6028;BME280;3042;43.194;27.646;2023-09-12T03:53:15;101844.69;;;20.18;100.00
6028;BME280;3042;43.194;27.646;2023-09-12T03:55:43;101771.53;;;19.59;100.00
6028;BME280;3042;43.194;27.646;2023-09-12T03:58:10;101844.69;;;20.18;100.00
6028;BME280;3042;43.194;27.646;2023-09-12T04:00:37;101853.50;;;20.22;100.00
6028;BME280;3042;43.194;27.646;2023-09-12T04:03:06;101868.59;;;19.94;100.00
6028;BME280;3042;43.194;27.646;2023-09-12T04:05:33;101858.56;;;19.78;100.00
6028;BME280;3042;43.194;27.646;2023-09-12T04:08:00;101829.94;;;19.86;100.00
6028;BME280;3042;43.194;27.646;2023-09-12T04:10:27;101855.84;;;20.10;100.00
6028;BME280;3042;43.194;27.646;2023-09-12T04:12:54;101856.88;;;20.18;100.00
6028;BME280;3042;43.194;27.646;2023-09-12T04:15:21;101852.78;;;20.29;100.00
6028;BME280;3042;43.194;27.646;2023-09-12T04:17:48;101856.38;;;20.34;100.00
6028;BME280;3042;43.194;27.646;2023-09-12T04:20:16;101817.88;;;20.33;100.00
6028;BME280;3042;43.194;27.646;2023-09-12T04:22:43;101852.59;;;20.59;100.00
6028;BME280;3042;43.194;27.646;2023-09-12T04:25:10;101855.31;;;20.64;100.00
6028;BME280;3042;43.194;27.646;2023-09-12T04:27:37;101858.03;;;20.69;100.00
6028;BME280;3042;43.194;27.646;2023-09-12T04:30:05;101846.78;;;20.76;100.00
6028;BME280;3042;43.194;27.646;2023-09-12T04:32:32;101847.03;;;20.88;100.00
6028;BME280;3042;43.194;27.646;2023-09-12T04:34:59;101814.50;;;20.80;100.00
6028;BME280;3042;43.194;27.646;2023-09-12T04:37:30;101838.63;;;21.06;100.00
6028;BME280;3042;43.194;27.646;2023-09-12T04:39:57;101823.50;;;20.94;100.00
6028;BME280;3042;43.194;27.646;2023-09-12T04:42:24;101834.47;;;21.19;100.00
6028;BME280;3042;43.194;27.646;2023-09-12T04:44:51;101830.38;;;21.33;100.00
6028;BME280;3042;43.194;27.646;2023-09-12T04:47:18;101832.38;;;21.45;100.00
6028;BME280;3042;43.194;27.646;2023-09-12T04:49:46;101828.97;;;21.54;100.00
6028;BME280;3042;43.194;27.646;2023-09-12T04:52:13;101832.44;;;21.51;100.00
6028;BME280;3042;43.194;27.646;2023-09-12T04:54:42;101827.25;;;21.56;100.00
6028;BME280;3042;43.194;27.646;2023-09-12T04:57:09;101810.19;;;21.32;100.00
6028;BME280;3042;43.194;27.646;2023-09-12T04:59:35;101834.31;;;21.58;100.00
6028;BME280;3042;43.194;27.646;2023-09-12T05:02:03;101825.97;;;21.84;100.00
6028;BME280;3042;43.194;27.646;2023-09-12T05:04:30;101833.91;;;21.87;100.00
6028;BME280;3042;43.194;27.646;2023-09-12T05:06:57;101836.91;;;22.11;100.00
6028;BME280;3042;43.194;27.646;2023-09-12T05:09:24;101723.25;;;21.79;100.00
6028;BME280;3042;43.194;27.646;2023-09-12T05:11:52;101811.06;;;22.45;100.00
6028;BME280;3042;43.194;27.646;2023-09-12T05:14:19;101832.50;;;22.74;100.00
6028;BME280;3042;43.194;27.646;2023-09-12T05:16:46;101834.38;;;22.86;100.00
6028;BME280;3042;43.194;27.646;2023-09-12T05:19:13;101752.44;;;22.66;100.00
6028;BME280;3042;43.194;27.646;2023-09-12T05:21:40;101827.41;;;22.91;100.00
6028;BME280;3042;43.194;27.646;2023-09-12T05:24:07;101834.31;;;22.82;100.00
6028;BME280;3042;43.194;27.646;2023-09-12T05:26:36;101825.91;;;23.15;100.00
6028;BME280;3042;43.194;27.646;2023-09-12T05:29:04;101826.13;;;23.38;100.00
6028;BME280;3042;43.194;27.646;2023-09-12T05:31:31;101821.13;;;23.70;100.00
6028;BME280;3042;43.194;27.646;2023-09-12T05:33:58;101819.56;;;23.97;100.00
6028;BME280;3042;43.194;27.646;2023-09-12T05:36:25;101810.91;;;24.22;100.00
6028;BME280;3042;43.194;27.646;2023-09-12T05:38:52;101815.41;;;24.43;100.00
6028;BME280;3042;43.194;27.646;2023-09-12T05:41:19;101812.03;;;24.69;100.00
6028;BME280;3042;43.194;27.646;2023-09-12T05:43:46;101803.28;;;24.90;100.00
6028;BME280;3042;43.194;27.646;2023-09-12T05:46:15;101802.44;;;25.16;100.00
6028;BME280;3042;43.194;27.646;2023-09-12T05:48:42;101802.47;;;25.28;100.00
6028;BME280;3042;43.194;27.646;2023-09-12T05:51:08;101805.09;;;25.17;100.00
6028;BME280;3042;43.194;27.646;2023-09-12T05:53:37;101812.13;;;25.06;100.00
6028;BME280;3042;43.194;27.646;2023-09-12T05:56:04;101797.16;;;25.19;100.00
6028;BME280;3042;43.194;27.646;2023-09-12T05:58:30;101803.34;;;25.22;100.00
6028;BME280;3042;43.194;27.646;2023-09-12T06:00:59;101800.69;;;25.42;100.00
6028;BME280;3042;43.194;27.646;2023-09-12T06:03:28;101795.41;;;25.76;100.00
6028;BME280;3042;43.194;27.646;2023-09-12T06:05:55;101791.81;;;26.11;100.00
6028;BME280;3042;43.194;27.646;2023-09-12T06:08:22;101795.25;;;26.35;100.00
6028;BME280;3042;43.194;27.646;2023-09-12T06:10:49;101788.09;;;26.63;100.00
6028;BME280;3042;43.194;27.646;2023-09-12T06:13:19;101798.66;;;26.67;100.00
6028;BME280;3042;43.194;27.646;2023-09-12T06:15:46;101792.22;;;27.05;100.00
6028;BME280;3042;43.194;27.646;2023-09-12T06:18:13;101797.47;;;27.16;100.00
6028;BME280;3042;43.194;27.646;2023-09-12T06:20:41;101794.78;;;27.17;100.00
6028;BME280;3042;43.194;27.646;2023-09-12T06:23:09;101804.53;;;27.23;100.00
6028;BME280;3042;43.194;27.646;2023-09-12T06:25:36;101774.22;;;27.49;100.00
6028;BME280;3042;43.194;27.646;2023-09-12T06:28:03;101795.59;;;27.35;100.00
6028;BME280;3042;43.194;27.646;2023-09-12T06:30:30;101784.72;;;27.61;100.00
6028;BME280;3042;43.194;27.646;2023-09-12T06:32:57;101804.06;;;27.75;100.00
6028;BME280;3042;43.194;27.646;2023-09-12T06:35:24;101798.69;;;27.85;100.00
6028;BME280;3042;43.194;27.646;2023-09-12T06:37:53;101782.75;;;27.78;100.00
6028;BME280;3042;43.194;27.646;2023-09-12T06:40:21;101801.00;;;28.14;100.00
6028;BME280;3042;43.194;27.646;2023-09-12T06:42:48;101800.03;;;28.21;100.00
6028;BME280;3042;43.194;27.646;2023-09-12T06:45:15;101785.31;;;27.92;100.00
6028;BME280;3042;43.194;27.646;2023-09-12T06:47:42;101807.34;;;28.04;100.00
6028;BME280;3042;43.194;27.646;2023-09-12T06:50:10;101807.22;;;28.14;100.00
6028;BME280;3042;43.194;27.646;2023-09-12T06:52:36;101807.84;;;28.36;100.00
6028;BME280;3042;43.194;27.646;2023-09-12T06:55:06;101780.22;;;28.50;100.00
6028;BME280;3042;43.194;27.646;2023-09-12T06:57:33;101799.47;;;28.66;100.00
6028;BME280;3042;43.194;27.646;2023-09-12T07:00:00;101792.94;;;28.90;100.00
6028;BME280;3042;43.194;27.646;2023-09-12T07:02:27;101788.06;;;29.19;100.00
6028;BME280;3042;43.194;27.646;2023-09-12T07:04:55;101793.50;;;29.13;100.00
6028;BME280;3042;43.194;27.646;2023-09-12T07:07:22;101809.56;;;29.07;100.00
6028;BME280;3042;43.194;27.646;2023-09-12T07:09:49;101783.97;;;28.97;100.00
6028;BME280;3042;43.194;27.646;2023-09-12T07:12:17;101792.91;;;29.47;100.00
6028;BME280;3042;43.194;27.646;2023-09-12T07:14:45;101804.66;;;29.37;100.00
6028;BME280;3042;43.194;27.646;2023-09-12T07:17:11;101806.59;;;29.25;100.00
6028;BME280;3042;43.194;27.646;2023-09-12T07:19:38;101791.97;;;29.51;100.00
6028;BME280;3042;43.194;27.646;2023-09-12T07:22:05;101795.06;;;29.78;100.00
6028;BME280;3042;43.194;27.646;2023-09-12T07:24:32;101784.22;;;29.87;100.00
6028;BME280;3042;43.194;27.646;2023-09-12T07:26:59;101780.91;;;30.19;100.00
6028;BME280;3042;43.194;27.646;2023-09-12T07:29:28;101747.69;;;30.37;100.00
6028;BME280;3042;43.194;27.646;2023-09-12T07:31:55;101757.31;;;30.43;100.00
6028;BME280;3042;43.194;27.646;2023-09-12T07:34:24;101787.69;;;30.37;100.00
6028;BME280;3042;43.194;27.646;2023-09-12T07:36:52;101790.31;;;29.94;100.00
6028;BME280;3042;43.194;27.646;2023-09-12T07:39:20;101790.31;;;29.94;100.00
6028;BME280;3042;43.194;27.646;2023-09-12T07:41:47;101787.13;;;30.20;100.00
6028;BME280;3042;43.194;27.646;2023-09-12T07:44:15;101780.34;;;30.47;100.00
6028;BME280;3042;43.194;27.646;2023-09-12T07:46:46;101777.66;;;30.48;100.00
6028;BME280;3042;43.194;27.646;2023-09-12T07:49:14;101791.16;;;29.97;100.00
6028;BME280;3042;43.194;27.646;2023-09-12T07:51:41;101785.53;;;30.11;100.00
6028;BME280;3042;43.194;27.646;2023-09-12T07:54:08;101778.78;;;30.37;100.00
6028;BME280;3042;43.194;27.646;2023-09-12T07:56:35;101783.06;;;30.45;100.00
6028;BME280;3042;43.194;27.646;2023-09-12T07:59:02;101693.38;;;30.40;100.00
6028;BME280;3042;43.194;27.646;2023-09-12T08:01:29;101767.25;;;30.77;100.00
6028;BME280;3042;43.194;27.646;2023-09-12T08:03:58;101769.75;;;30.84;100.00
6028;BME280;3042;43.194;27.646;2023-09-12T08:06:25;101775.09;;;30.83;100.00
6028;BME280;3042;43.194;27.646;2023-09-12T08:08:52;101771.50;;;30.85;100.00
6028;BME280;3042;43.194;27.646;2023-09-12T08:11:19;101727.91;;;30.83;100.00
6028;BME280;3042;43.194;27.646;2023-09-12T08:13:49;101681.25;;;30.64;100.00
6028;BME280;3042;43.194;27.646;2023-09-12T08:16:16;101764.31;;;31.23;100.00
6028;BME280;3042;43.194;27.646;2023-09-12T08:18:43;101754.16;;;31.72;100.00
6028;BME280;3042;43.194;27.646;2023-09-12T08:21:11;101768.44;;;31.37;100.00
6028;BME280;3042;43.194;27.646;2023-09-12T08:23:38;101704.31;;;30.66;100.00
6028;BME280;3042;43.194;27.646;2023-09-12T08:26:05;101754.63;;;31.55;100.00
6028;BME280;3042;43.194;27.646;2023-09-12T08:28:32;101764.22;;;31.28;100.00
6028;BME280;3042;43.194;27.646;2023-09-12T08:30:59;101740.38;;;31.20;100.00
6028;BME280;3042;43.194;27.646;2023-09-12T08:33:26;101757.75;;;31.37;100.00
6028;BME280;3042;43.194;27.646;2023-09-12T08:35:53;101719.09;;;30.81;100.00
6028;BME280;3042;43.194;27.646;2023-09-12T08:38:21;101753.13;;;31.45;100.00
6028;BME280;3042;43.194;27.646;2023-09-12T08:40:49;101738.41;;;31.28;100.00
6028;BME280;3042;43.194;27.646;2023-09-12T08:43:16;101753.13;;;31.45;100.00
6028;BME280;3042;43.194;27.646;2023-09-12T08:45:43;101756.44;;;31.19;100.00
6028;BME280;3042;43.194;27.646;2023-09-12T08:48:11;101749.84;;;31.33;100.00
6028;BME280;3042;43.194;27.646;2023-09-12T08:50:38;101756.31;;;31.23;100.00
6028;BME280;3042;43.194;27.646;2023-09-12T08:53:06;101755.38;;;31.26;100.00
6028;BME280;3042;43.194;27.646;2023-09-12T08:55:35;101755.31;;;31.27;100.00
6028;BME280;3042;43.194;27.646;2023-09-12T08:58:03;101621.69;;;30.26;100.00
6028;BME280;3042;43.194;27.646;2023-09-12T09:00:31;101741.38;;;31.52;100.00
6028;BME280;3042;43.194;27.646;2023-09-12T09:02:59;101742.06;;;31.59;100.00
6028;BME280;3042;43.194;27.646;2023-09-12T09:05:27;101748.75;;;31.75;100.00
6028;BME280;3042;43.194;27.646;2023-09-12T09:07:54;101734.16;;;31.87;100.00
6028;BME280;3042;43.194;27.646;2023-09-12T09:10:22;101695.47;;;31.67;100.00
6028;BME280;3042;43.194;27.646;2023-09-12T09:12:51;101751.72;;;31.64;100.00
6028;BME280;3042;43.194;27.646;2023-09-12T09:15:24;101747.84;;;31.74;100.00
6028;BME280;3042;43.194;27.646;2023-09-12T09:17:53;101746.19;;;31.70;100.00
6028;BME280;3042;43.194;27.646;2023-09-12T09:20:29;101749.09;;;31.94;100.00
6028;BME280;3042;43.194;27.646;2023-09-12T09:22:57;101739.31;;;31.93;100.00
6028;BME280;3042;43.194;27.646;2023-09-12T09:25:24;101734.19;;;32.16;100.00
6028;BME280;3042;43.194;27.646;2023-09-12T09:27:53;101734.28;;;32.13;100.00
6028;BME280;3042;43.194;27.646;2023-09-12T09:30:39;101745.25;;;32.04;100.00
6028;BME280;3042;43.194;27.646;2023-09-12T09:33:07;101690.75;;;31.77;100.00
6028;BME280;3042;43.194;27.646;2023-09-12T09:35:34;101731.97;;;32.31;100.00
6028;BME280;3042;43.194;27.646;2023-09-12T09:38:05;101732.59;;;32.41;100.00
6028;BME280;3042;43.194;27.646;2023-09-12T09:40:33;101734.41;;;32.38;100.00
6028;BME280;3042;43.194;27.646;2023-09-12T09:43:03;101573.47;;;31.66;100.00
6028;BME280;3042;43.194;27.646;2023-09-12T09:45:31;101729.41;;;32.57;100.00
6028;BME280;3042;43.194;27.646;2023-09-12T09:47:59;101719.19;;;32.41;100.00
6028;BME280;3042;43.194;27.646;2023-09-12T09:50:33;101720.06;;;32.11;100.00
6028;BME280;3042;43.194;27.646;2023-09-12T09:53:03;101728.66;;;32.23;100.00
6028;BME280;3042;43.194;27.646;2023-09-12T09:55:32;101736.38;;;32.04;100.00
6028;BME280;3042;43.194;27.646;2023-09-12T09:57:59;101742.25;;;31.84;100.00
6028;BME280;3042;43.194;27.646;2023-09-12T10:00:29;101736.22;;;32.08;100.00
6028;BME280;3042;43.194;27.646;2023-09-12T10:02:56;101724.34;;;32.17;100.00
6028;BME280;3042;43.194;27.646;2023-09-12T10:05:24;101736.75;;;31.88;100.00
6028;BME280;3042;43.194;27.646;2023-09-12T10:07:53;101732.16;;;32.25;100.00
6028;BME280;3042;43.194;27.646;2023-09-12T10:10:24;101626.00;;;31.67;100.00
6028;BME280;3042;43.194;27.646;2023-09-12T10:12:56;101720.56;;;32.54;100.00
6028;BME280;3042;43.194;27.646;2023-09-12T10:15:28;101717.47;;;32.68;100.00
6028;BME280;3042;43.194;27.646;2023-09-12T10:17:57;101716.44;;;32.72;100.00
6028;BME280;3042;43.194;27.646;2023-09-12T10:20:26;101721.06;;;32.67;100.00
6028;BME280;3042;43.194;27.646;2023-09-12T10:23:01;101677.88;;;32.49;100.00
6028;BME280;3042;43.194;27.646;2023-09-12T10:25:35;101668.97;;;32.50;100.00
6028;BME280;3042;43.194;27.646;2023-09-12T10:28:04;101717.19;;;32.47;100.00
6028;BME280;3042;43.194;27.646;2023-09-12T10:30:33;101720.34;;;32.62;100.00
6028;BME280;3042;43.194;27.646;2023-09-12T10:33:02;101712.31;;;32.88;100.00
6028;BME280;3042;43.194;27.646;2023-09-12T10:35:30;101712.72;;;33.03;100.00
6028;BME280;3042;43.194;27.646;2023-09-12T10:37:59;101704.34;;;32.87;100.00
6028;BME280;3042;43.194;27.646;2023-09-12T10:40:29;101727.56;;;32.30;100.00
6028;BME280;3042;43.194;27.646;2023-09-12T10:42:56;101705.44;;;32.81;100.00
6028;BME280;3042;43.194;27.646;2023-09-12T10:45:24;101698.41;;;33.04;100.00
6028;BME280;3042;43.194;27.646;2023-09-12T10:47:53;101704.63;;;33.06;100.00
6028;BME280;3042;43.194;27.646;2023-09-12T10:50:20;101698.53;;;33.27;100.00
6028;BME280;3042;43.194;27.646;2023-09-12T10:52:47;101643.75;;;32.83;100.00
6028;BME280;3042;43.194;27.646;2023-09-12T10:55:16;101702.63;;;32.84;100.00
6028;BME280;3042;43.194;27.646;2023-09-12T10:58:02;101639.66;;;32.72;100.00
6028;BME280;3042;43.194;27.646;2023-09-12T11:00:29;101701.41;;;33.21;100.00
6028;BME280;3042;43.194;27.646;2023-09-12T11:03:01;101701.19;;;33.00;100.00
6028;BME280;3042;43.194;27.646;2023-09-12T11:05:52;101699.34;;;33.03;100.00
6028;BME280;3042;43.194;27.646;2023-09-12T11:08:20;101699.75;;;32.90;100.00
6028;BME280;3042;43.194;27.646;2023-09-12T11:11:16;101702.03;;;32.76;100.00
6028;BME280;3042;43.194;27.646;2023-09-12T11:13:44;101702.03;;;32.76;100.00
6028;BME280;3042;43.194;27.646;2023-09-12T11:16:13;101696.69;;;32.76;100.00
6028;BME280;3042;43.194;27.646;2023-09-12T11:19:16;101701.81;;;32.82;100.00
6028;BME280;3042;43.194;27.646;2023-09-12T11:21:44;101706.59;;;32.44;100.00
6028;BME280;3042;43.194;27.646;2023-09-12T11:24:12;101698.03;;;32.61;100.00
6028;BME280;3042;43.194;27.646;2023-09-12T11:26:56;101688.22;;;32.62;100.00
6028;BME280;3042;43.194;27.646;2023-09-12T11:29:27;101600.44;;;32.16;100.00
6028;BME280;3042;43.194;27.646;2023-09-12T11:31:55;101689.34;;;32.81;100.00
6028;BME280;3042;43.194;27.646;2023-09-12T11:34:30;101689.66;;;32.72;100.00
6028;BME280;3042;43.194;27.646;2023-09-12T11:37:02;101684.41;;;32.69;100.00
6028;BME280;3042;43.194;27.646;2023-09-12T11:39:31;101684.00;;;32.81;100.00
6028;BME280;3042;43.194;27.646;2023-09-12T11:42:00;101694.59;;;32.84;100.00
6028;BME280;3042;43.194;27.646;2023-09-12T11:44:28;101678.28;;;32.65;100.00
6028;BME280;3042;43.194;27.646;2023-09-12T11:46:57;101685.78;;;32.54;100.00
6028;BME280;3042;43.194;27.646;2023-09-12T11:49:35;101682.88;;;32.62;100.00
6028;BME280;3042;43.194;27.646;2023-09-12T11:52:02;101681.22;;;32.57;100.00
6028;BME280;3042;43.194;27.646;2023-09-12T11:54:30;101686.84;;;32.48;100.00
6028;BME280;3042;43.194;27.646;2023-09-12T11:56:58;101676.31;;;32.42;100.00
6028;BME280;3042;43.194;27.646;2023-09-12T11:59:25;101686.03;;;32.45;100.00
6028;BME280;3042;43.194;27.646;2023-09-12T12:01:53;101649.97;;;32.30;100.00
6028;BME280;3042;43.194;27.646;2023-09-12T12:04:20;101681.78;;;32.67;100.00
6028;BME280;3042;43.194;27.646;2023-09-12T12:06:50;101675.50;;;32.68;100.00
6028;BME280;3042;43.194;27.646;2023-09-12T12:09:17;101630.78;;;32.44;100.00
6028;BME280;3042;43.194;27.646;2023-09-12T12:11:45;101670.28;;;32.64;100.00
6028;BME280;3042;43.194;27.646;2023-09-12T12:14:13;101657.22;;;32.81;100.00
6028;BME280;3042;43.194;27.646;2023-09-12T12:16:41;101639.38;;;32.27;100.00
6028;BME280;3042;43.194;27.646;2023-09-12T12:19:08;101670.06;;;32.43;100.00
6028;BME280;3042;43.194;27.646;2023-09-12T12:21:37;101668.25;;;32.72;100.00
6028;BME280;3042;43.194;27.646;2023-09-12T12:24:07;101664.13;;;32.62;100.00
6028;BME280;3042;43.194;27.646;2023-09-12T12:26:34;101660.63;;;32.59;100.00
6028;BME280;3042;43.194;27.646;2023-09-12T12:29:02;101660.31;;;32.69;100.00
6028;BME280;3042;43.194;27.646;2023-09-12T12:31:29;101656.91;;;32.64;100.00
6028;BME280;3042;43.194;27.646;2023-09-12T12:33:56;101670.78;;;32.20;100.00
6028;BME280;3042;43.194;27.646;2023-09-12T12:36:25;101676.88;;;32.24;100.00
6028;BME280;3042;43.194;27.646;2023-09-12T12:38:52;101677.47;;;32.33;100.00
6028;BME280;3042;43.194;27.646;2023-09-12T12:41:24;101638.97;;;32.39;100.00
6028;BME280;3042;43.194;27.646;2023-09-12T12:43:53;101653.66;;;32.54;100.00
6028;BME280;3042;43.194;27.646;2023-09-12T12:46:20;101664.69;;;32.43;100.00
6028;BME280;3042;43.194;27.646;2023-09-12T12:48:48;101664.56;;;32.48;100.00
6028;BME280;3042;43.194;27.646;2023-09-12T12:51:17;101664.06;;;32.35;100.00
6028;BME280;3042;43.194;27.646;2023-09-12T12:53:46;101666.59;;;32.39;100.00
6028;BME280;3042;43.194;27.646;2023-09-12T12:56:15;101674.28;;;31.91;100.00